Time;durP1;ratioP1;P1;durP2;ratioP2;P2;SDS_P1;SDS_P2;PMS_P1;PMS_P2;Temp;Humidity;BMP_temperature;BMP_pressure;BME280_temperature;BME280_humidity;BME280_pressure;Samples;Min_cycle;Max_cycle;Signal;HPM_P1;HPM_P2
2023/10/25 00:00:29;;;;;;;10.27;3.70;;;9.40;99.90;;;;;;5114247;27;20172;-62
2023/10/25 00:02:54;;;;;;;7.25;3.08;;;9.30;99.90;;;;;;5132870;27;20042;-62
2023/10/25 00:05:20;;;;;;;7.80;3.10;;;9.30;99.90;;;;;;5114600;27;20046;-62
2023/10/25 00:07:46;;;;;;;6.00;3.10;;;9.30;99.90;;;;;;5113686;27;20039;-62
2023/10/25 00:10:11;;;;;;;6.45;3.22;;;9.30;99.90;;;;;;5132148;27;20164;-62
2023/10/25 00:12:37;;;;;;;5.28;2.75;;;9.30;99.90;;;;;;5132652;27;20034;-62
2023/10/25 00:15:04;;;;;;;8.20;3.28;;;9.30;99.90;;;;;;5114512;27;20046;-62
2023/10/25 00:17:30;;;;;;;6.10;3.00;;;9.20;99.90;;;;;;5132095;27;20039;-62
2023/10/25 00:19:56;;;;;;;8.10;3.53;;;9.20;99.90;;;;;;5132456;27;20031;-62
2023/10/25 00:22:21;;;;;;;6.68;2.90;;;9.30;99.90;;;;;;5114150;27;20031;-62
2023/10/25 00:24:47;;;;;;;7.03;2.80;;;9.20;99.90;;;;;;5114116;27;20126;-62
2023/10/25 00:27:12;;;;;;;6.95;2.90;;;9.20;99.90;;;;;;5113660;27;20045;-62
2023/10/25 00:29:38;;;;;;;7.53;3.05;;;9.20;99.90;;;;;;5113829;27;20039;-62
2023/10/25 00:32:11;;;;;;;7.15;2.97;;;9.20;99.90;;;;;;5113811;27;20039;-62
2023/10/25 00:34:36;;;;;;;7.28;2.95;;;9.20;99.90;;;;;;5131902;27;20396;-62
2023/10/25 00:37:02;;;;;;;6.47;3.20;;;9.20;99.90;;;;;;5129699;27;20114;-62
2023/10/25 00:39:28;;;;;;;4.95;2.92;;;9.20;99.90;;;;;;5113437;27;20075;-62
2023/10/25 00:41:54;;;;;;;6.40;3.20;;;9.20;99.90;;;;;;5113726;27;20126;-62
2023/10/25 00:44:19;;;;;;;7.80;3.00;;;9.20;99.90;;;;;;5116224;27;20460;-62
2023/10/25 00:46:47;;;;;;;6.80;2.83;;;9.20;99.90;;;;;;5131901;27;20039;-62
2023/10/25 00:49:13;;;;;;;5.70;2.90;;;9.10;99.90;;;;;;5113432;27;20122;-62
2023/10/25 00:51:39;;;;;;;7.30;2.78;;;9.10;99.90;;;;;;5113148;27;20111;-62
2023/10/25 00:54:04;;;;;;;4.50;3.00;;;9.10;99.90;;;;;;5131867;27;20100;-62
2023/10/25 00:56:33;;;;;;;3.08;2.75;;;9.10;99.90;;;;;;5114811;27;20075;-62
2023/10/25 00:58:59;;;;;;;6.35;2.83;;;9.10;99.90;;;;;;5113152;27;20046;-62
2023/10/25 01:01:27;;;;;;;7.63;3.20;;;9.00;99.90;;;;;;5113075;27;20492;-62
2023/10/25 01:03:54;;;;;;;8.70;3.10;;;9.00;99.90;;;;;;5131804;27;20435;-62
2023/10/25 01:06:20;;;;;;;9.75;3.25;;;9.00;99.90;;;;;;5131664;27;20043;-62
2023/10/25 01:08:46;;;;;;;7.85;3.00;;;9.00;99.90;;;;;;5131446;27;20119;-62
2023/10/25 01:11:11;;;;;;;6.30;3.10;;;9.00;99.90;;;;;;5131222;27;20114;-62
2023/10/25 01:13:37;;;;;;;6.05;3.00;;;9.00;99.90;;;;;;5131038;27;20465;-62
2023/10/25 01:16:04;;;;;;;5.45;2.78;;;9.00;99.90;;;;;;5131744;27;20038;-62
2023/10/25 01:18:30;;;;;;;11.70;3.05;;;9.00;99.90;;;;;;5095740;27;20573;-62
2023/10/25 01:20:56;;;;;;;5.25;2.67;;;9.00;99.90;;;;;;5113003;27;20046;-62
2023/10/25 01:23:22;;;;;;;6.82;2.78;;;8.90;99.90;;;;;;5131248;27;20390;-62
2023/10/25 01:25:47;;;;;;;5.88;2.75;;;8.90;99.90;;;;;;5131098;27;20410;-62
2023/10/25 01:28:13;;;;;;;4.82;2.50;;;8.90;99.90;;;;;;5113052;27;20479;-62
2023/10/25 01:30:40;;;;;;;8.63;3.20;;;8.80;99.90;;;;;;5131195;27;20042;-62
2023/10/25 01:33:06;;;;;;;5.32;2.88;;;8.80;99.90;;;;;;5131126;27;20069;-62
2023/10/25 01:35:33;;;;;;;9.73;3.00;;;8.80;99.90;;;;;;5112602;27;20055;-62
2023/10/25 01:37:59;;;;;;;9.43;3.45;;;8.80;99.90;;;;;;5130817;27;20149;-62
2023/10/25 01:40:25;;;;;;;6.28;2.97;;;8.70;99.90;;;;;;5110945;28;20178;-62
2023/10/25 01:42:54;;;;;;;7.43;3.22;;;8.80;99.90;;;;;;5112465;28;21467;-62
2023/10/25 01:45:22;;;;;;;8.15;3.60;;;8.70;99.90;;;;;;5130998;28;20046;-62
2023/10/25 01:47:47;;;;;;;10.90;4.72;;;8.80;99.90;;;;;;5112450;28;20051;-62
2023/10/25 01:50:13;;;;;;;9.02;3.95;;;8.70;99.90;;;;;;5112787;28;20043;-62
2023/10/25 01:52:39;;;;;;;10.60;3.50;;;8.70;99.90;;;;;;5129684;28;20401;-62
2023/10/25 01:55:04;;;;;;;6.00;3.70;;;8.70;99.90;;;;;;5112442;28;20386;-62
2023/10/25 01:57:30;;;;;;;8.93;3.70;;;8.60;99.90;;;;;;5130942;28;20042;-62
2023/10/25 01:59:56;;;;;;;6.80;4.10;;;8.60;99.90;;;;;;5130520;28;20031;-62
2023/10/25 02:02:21;;;;;;;6.97;4.00;;;8.60;99.90;;;;;;5112297;28;20049;-62
2023/10/25 02:04:47;;;;;;;7.13;3.85;;;8.60;99.90;;;;;;5111861;28;20100;-62
2023/10/25 02:07:13;;;;;;;9.10;4.40;;;8.60;99.90;;;;;;5130257;28;20031;-63
2023/10/25 02:09:38;;;;;;;10.35;4.90;;;8.60;99.90;;;;;;5130898;27;20474;-62
2023/10/25 02:12:04;;;;;;;7.20;4.40;;;8.60;99.90;;;;;;5115432;27;20034;-62
2023/10/25 02:14:31;;;;;;;10.88;5.03;;;8.60;99.90;;;;;;5134810;27;20052;-62
2023/10/25 02:16:57;;;;;;;9.10;4.50;;;8.60;99.90;;;;;;5116255;27;20043;-62
2023/10/25 02:19:23;;;;;;;9.13;4.80;;;8.60;99.90;;;;;;5116392;27;20039;-62
2023/10/25 02:21:48;;;;;;;5.90;4.72;;;8.50;99.90;;;;;;5133819;27;20031;-62
2023/10/25 02:24:15;;;;;;;6.72;4.72;;;8.60;99.90;;;;;;5116213;27;20100;-62
2023/10/25 02:26:41;;;;;;;8.88;5.18;;;8.60;99.90;;;;;;5116052;27;20506;-62
2023/10/25 02:29:07;;;;;;;7.68;5.22;;;8.50;99.90;;;;;;5134381;27;20069;-62
2023/10/25 02:31:37;;;;;;;10.25;5.50;;;8.60;99.90;;;;;;5134736;27;20063;-62
2023/10/25 02:34:03;;;;;;;7.43;5.35;;;8.60;99.90;;;;;;5134348;27;20066;-62
2023/10/25 02:36:30;;;;;;;9.93;5.68;;;8.60;99.90;;;;;;5115524;27;20062;-62
2023/10/25 02:38:57;;;;;;;10.73;5.35;;;8.60;99.90;;;;;;5116435;27;20493;-62
2023/10/25 02:41:23;;;;;;;7.65;5.57;;;8.50;99.90;;;;;;5100250;27;20047;-62
2023/10/25 02:43:51;;;;;;;8.23;5.40;;;8.50;99.90;;;;;;5115938;27;20087;-62
2023/10/25 02:46:17;;;;;;;9.27;5.45;;;8.50;99.90;;;;;;5114835;27;20106;-62
2023/10/25 02:48:43;;;;;;;7.32;5.20;;;8.50;99.90;;;;;;5110897;27;20039;-63
2023/10/25 02:51:08;;;;;;;7.88;5.10;;;8.50;99.90;;;;;;5115453;27;20470;-62
2023/10/25 02:53:34;;;;;;;8.43;4.70;;;8.50;99.90;;;;;;5134125;27;20028;-62
2023/10/25 02:56:02;;;;;;;7.57;5.10;;;8.50;99.90;;;;;;5134097;27;20134;-62
2023/10/25 02:58:28;;;;;;;7.85;4.82;;;8.50;99.90;;;;;;5114763;27;20043;-62
2023/10/25 03:00:53;;;;;;;10.82;5.07;;;8.50;99.90;;;;;;5131840;27;20084;-62
2023/10/25 03:03:19;;;;;;;8.63;5.55;;;8.40;99.90;;;;;;5115284;27;20049;-62
2023/10/25 03:05:45;;;;;;;7.03;4.45;;;8.40;99.90;;;;;;5115454;27;20112;-62
2023/10/25 03:08:11;;;;;;;8.52;5.15;;;8.40;99.90;;;;;;5133558;27;20023;-62
2023/10/25 03:10:36;;;;;;;8.02;4.97;;;8.40;99.90;;;;;;5115086;27;20031;-62
2023/10/25 03:13:02;;;;;;;9.25;4.80;;;8.40;99.90;;;;;;5133936;27;20094;-62
2023/10/25 03:15:28;;;;;;;7.75;4.30;;;8.40;99.90;;;;;;5133694;27;20105;-62
2023/10/25 03:17:54;;;;;;;6.50;4.45;;;8.40;99.90;;;;;;5115725;27;20122;-62
2023/10/25 03:20:20;;;;;;;7.10;4.28;;;8.40;99.90;;;;;;5133338;27;20042;-62
2023/10/25 03:22:46;;;;;;;7.00;4.63;;;8.40;99.90;;;;;;5133351;27;20027;-62
2023/10/25 03:25:12;;;;;;;7.35;4.15;;;8.40;99.90;;;;;;5133786;27;20462;-62
2023/10/25 03:27:37;;;;;;;6.47;4.05;;;8.40;99.90;;;;;;5114782;27;20047;-63
2023/10/25 03:30:04;;;;;;;7.60;4.07;;;8.40;99.90;;;;;;5114839;27;20031;-62
2023/10/25 03:32:30;;;;;;;8.77;3.97;;;8.30;99.90;;;;;;5133196;27;20039;-62
2023/10/25 03:34:55;;;;;;;9.15;5.20;;;8.40;99.90;;;;;;5133594;27;20146;-63
2023/10/25 03:37:21;;;;;;;7.13;4.07;;;8.30;99.90;;;;;;5114408;27;20047;-62
2023/10/25 03:39:48;;;;;;;5.95;3.90;;;8.30;99.90;;;;;;5114785;27;20027;-62
2023/10/25 03:42:14;;;;;;;8.40;4.50;;;8.30;99.90;;;;;;5133064;27;20050;-62
2023/10/25 03:44:39;;;;;;;5.53;3.78;;;8.30;99.90;;;;;;5114566;27;20046;-63
2023/10/25 03:47:05;;;;;;;6.82;4.30;;;8.30;99.90;;;;;;5133118;27;20371;-62
2023/10/25 03:49:31;;;;;;;7.43;4.38;;;8.20;99.90;;;;;;5114939;27;20054;-62
2023/10/25 03:51:56;;;;;;;8.57;4.60;;;8.20;99.90;;;;;;5114587;27;20039;-62
2023/10/25 03:54:22;;;;;;;8.75;4.45;;;8.20;99.90;;;;;;5132778;27;20039;-62
2023/10/25 03:56:47;;;;;;;8.35;4.47;;;8.20;99.90;;;;;;5132732;27;20059;-62
2023/10/25 03:59:15;;;;;;;7.63;4.57;;;8.20;99.90;;;;;;5114588;27;20405;-62
2023/10/25 04:01:41;;;;;;;5.88;4.32;;;8.20;99.90;;;;;;5132019;27;20071;-62
2023/10/25 04:04:07;;;;;;;7.88;5.03;;;8.20;99.90;;;;;;5114050;27;20066;-62
2023/10/25 04:06:33;;;;;;;9.13;4.80;;;8.20;99.90;;;;;;5114180;27;20064;-62
2023/10/25 04:08:59;;;;;;;7.05;4.68;;;8.20;99.90;;;;;;5114612;27;20031;-62
2023/10/25 04:11:24;;;;;;;7.90;4.82;;;8.20;99.90;;;;;;5114416;27;20076;-62
2023/10/25 04:13:50;;;;;;;10.82;4.60;;;8.10;99.90;;;;;;5113894;27;20035;-62
2023/10/25 04:16:16;;;;;;;6.97;5.05;;;8.10;99.90;;;;;;5114110;27;20042;-62
2023/10/25 04:18:41;;;;;;;7.10;4.43;;;8.10;99.90;;;;;;5132675;27;20355;-62
2023/10/25 04:21:12;;;;;;;9.32;5.13;;;8.10;99.90;;;;;;5096662;27;20054;-62
2023/10/25 04:23:38;;;;;;;7.68;4.88;;;8.10;99.90;;;;;;5113572;27;20043;-62
2023/10/25 04:26:11;;;;;;;6.47;4.20;;;8.10;99.90;;;;;;5113787;27;20122;-62
2023/10/25 04:28:38;;;;;;;8.48;5.03;;;8.10;99.90;;;;;;5132366;27;20037;-62
2023/10/25 04:31:04;;;;;;;7.97;4.88;;;8.10;99.90;;;;;;5113532;27;20032;-62
2023/10/25 04:33:30;;;;;;;7.63;5.40;;;8.10;99.90;;;;;;5113184;27;20031;-62
2023/10/25 04:35:56;;;;;;;9.88;4.93;;;8.10;99.90;;;;;;5112326;27;20055;-62
2023/10/25 04:38:26;;;;;;;9.55;5.00;;;8.10;99.90;;;;;;5130412;27;20051;-62
2023/10/25 04:40:52;;;;;;;7.28;4.38;;;8.10;99.90;;;;;;5132029;27;20043;-62
2023/10/25 04:43:18;;;;;;;9.65;4.93;;;8.10;99.90;;;;;;5113480;27;20107;-62
2023/10/25 04:45:45;;;;;;;8.95;4.70;;;8.00;99.90;;;;;;5112986;27;20035;-62
2023/10/25 04:48:10;;;;;;;10.40;5.13;;;8.00;99.90;;;;;;5113422;27;20066;-62
2023/10/25 04:50:37;;;;;;;8.50;4.80;;;8.00;99.90;;;;;;5110942;27;20119;-62
2023/10/25 04:53:04;;;;;;;8.45;4.97;;;8.00;99.90;;;;;;5113193;27;20043;-62
2023/10/25 04:55:31;;;;;;;4.93;4.43;;;8.00;99.90;;;;;;5113223;27;20070;-62
2023/10/25 04:57:57;;;;;;;9.95;4.78;;;8.00;99.90;;;;;;5097133;27;20072;-62
2023/10/25 05:00:23;;;;;;;8.95;4.93;;;8.00;99.90;;;;;;5113156;27;20035;-62
2023/10/25 05:02:49;;;;;;;9.98;4.82;;;8.00;99.90;;;;;;5113359;27;20442;-62
2023/10/25 05:05:15;;;;;;;12.05;5.38;;;7.90;99.90;;;;;;5131208;27;20039;-62
2023/10/25 05:07:41;;;;;;;9.60;4.68;;;7.90;99.90;;;;;;5131682;27;20114;-62
2023/10/25 05:10:09;;;;;;;9.88;4.57;;;7.90;99.90;;;;;;5131307;27;20122;-62
2023/10/25 05:12:44;;;;;;;6.57;4.60;;;7.90;99.90;;;;;;5113102;27;20075;-62
2023/10/25 05:15:12;;;;;;;6.13;4.45;;;7.90;99.90;;;;;;5131334;27;20482;-62
2023/10/25 05:17:38;;;;;;;6.47;4.13;;;7.90;99.90;;;;;;5131373;27;20035;-62
2023/10/25 05:20:05;;;;;;;9.35;4.60;;;7.90;99.90;;;;;;5130892;27;20035;-63
2023/10/25 05:22:35;;;;;;;5.60;4.55;;;7.90;99.90;;;;;;5111721;27;20038;-62
2023/10/25 05:25:02;;;;;;;7.90;4.72;;;7.90;99.90;;;;;;5131333;27;20096;-63
2023/10/25 05:27:27;;;;;;;8.43;4.72;;;7.90;99.90;;;;;;5114951;27;20459;-63
2023/10/25 05:29:53;;;;;;;7.15;4.53;;;7.90;99.90;;;;;;5131444;27;20047;-62
2023/10/25 05:32:20;;;;;;;8.38;4.88;;;7.90;99.90;;;;;;5111480;28;20157;-62
2023/10/25 05:34:48;;;;;;;9.70;4.72;;;7.90;99.90;;;;;;5128281;27;20501;-62
2023/10/25 05:37:15;;;;;;;8.35;5.75;;;7.90;99.90;;;;;;5105191;28;20496;-62
2023/10/25 05:39:42;;;;;;;8.60;4.57;;;7.90;99.90;;;;;;5109302;28;20063;-62
2023/10/25 05:42:12;;;;;;;8.95;4.40;;;7.80;99.90;;;;;;5108999;28;20039;-62
2023/10/25 05:44:38;;;;;;;9.43;4.65;;;7.80;99.90;;;;;;5103830;28;20049;-62
2023/10/25 05:47:04;;;;;;;11.02;4.95;;;7.80;99.90;;;;;;5104640;28;20077;-62
2023/10/25 05:49:30;;;;;;;9.15;4.60;;;7.80;99.90;;;;;;5091707;28;20055;-62
2023/10/25 05:51:56;;;;;;;10.57;4.80;;;7.80;99.90;;;;;;5106989;28;20036;-62
2023/10/25 05:54:21;;;;;;;10.45;4.93;;;7.70;99.90;;;;;;5105967;28;20043;-62
2023/10/25 05:56:47;;;;;;;10.02;5.00;;;7.70;99.90;;;;;;5107466;28;20114;-62
2023/10/25 05:59:13;;;;;;;8.00;4.80;;;7.70;99.90;;;;;;5109921;28;20050;-62
2023/10/25 06:01:49;;;;;;;7.35;4.63;;;7.70;99.90;;;;;;5088511;28;20048;-62
2023/10/25 06:04:15;;;;;;;12.38;5.07;;;7.70;99.90;;;;;;5110260;28;20130;-62
2023/10/25 06:06:43;;;;;;;11.77;4.80;;;7.70;99.90;;;;;;5106424;28;20043;-62
2023/10/25 06:09:10;;;;;;;9.48;5.00;;;7.70;99.90;;;;;;5090701;28;20036;-62
2023/10/25 06:11:38;;;;;;;9.73;4.90;;;7.80;99.90;;;;;;5106345;28;20498;-62
2023/10/25 06:14:04;;;;;;;9.75;4.90;;;7.80;99.90;;;;;;5109024;28;20028;-63
2023/10/25 06:16:30;;;;;;;8.32;4.55;;;7.70;99.90;;;;;;5106904;28;20043;-62
2023/10/25 06:18:56;;;;;;;9.35;5.15;;;7.80;99.90;;;;;;5109989;28;20047;-62
2023/10/25 06:21:22;;;;;;;10.55;4.90;;;7.80;99.90;;;;;;5107414;28;20105;-62
2023/10/25 06:23:47;;;;;;;10.57;4.95;;;7.70;99.90;;;;;;5104274;28;20486;-62
2023/10/25 06:26:13;;;;;;;6.72;5.18;;;7.70;99.90;;;;;;5100357;28;20043;-62
2023/10/25 06:28:39;;;;;;;7.95;5.07;;;7.80;99.90;;;;;;5104240;28;20047;-62
2023/10/25 06:31:05;;;;;;;8.93;5.40;;;7.70;99.90;;;;;;5103293;28;20036;-63
2023/10/25 06:33:31;;;;;;;8.50;5.35;;;7.80;99.90;;;;;;5099041;28;20478;-62
2023/10/25 06:36:00;;;;;;;7.40;5.10;;;7.80;99.90;;;;;;5108302;28;20060;-62
2023/10/25 06:38:26;;;;;;;7.88;4.95;;;7.80;99.90;;;;;;5105121;28;20114;-62
2023/10/25 06:40:52;;;;;;;8.75;4.97;;;7.80;99.90;;;;;;5099760;28;20051;-63
2023/10/25 06:43:18;;;;;;;9.10;4.82;;;7.80;99.90;;;;;;5102001;28;20052;-63
2023/10/25 06:45:47;;;;;;;8.85;4.93;;;7.80;99.90;;;;;;5108405;28;20047;-62
2023/10/25 06:48:13;;;;;;;8.57;4.80;;;7.90;99.90;;;;;;5108351;28;20477;-62
2023/10/25 06:50:39;;;;;;;10.75;4.65;;;7.80;99.90;;;;;;5108442;28;20066;-63
2023/10/25 06:53:05;;;;;;;7.05;4.95;;;7.80;99.90;;;;;;5109871;28;20429;-63
2023/10/25 06:55:31;;;;;;;6.55;4.45;;;7.80;99.90;;;;;;5108930;28;20042;-62
2023/10/25 06:57:57;;;;;;;8.57;4.55;;;7.90;99.90;;;;;;5111559;28;20074;-62
2023/10/25 07:00:23;;;;;;;9.90;5.00;;;7.80;99.90;;;;;;5111535;28;20032;-62
2023/10/25 07:02:51;;;;;;;7.38;4.57;;;7.80;99.90;;;;;;5113226;28;20034;-62
2023/10/25 07:05:23;;;;;;;7.22;4.75;;;7.80;99.90;;;;;;5111757;28;20081;-62
2023/10/25 07:07:52;;;;;;;9.60;5.40;;;7.80;99.90;;;;;;5111889;28;20372;-62
2023/10/25 07:10:19;;;;;;;9.15;4.75;;;7.90;99.90;;;;;;5111209;28;20043;-63
2023/10/25 07:12:46;;;;;;;6.88;4.55;;;7.80;99.90;;;;;;5111117;28;20036;-62
2023/10/25 07:15:12;;;;;;;8.45;4.50;;;7.80;99.90;;;;;;5112958;28;20394;-62
2023/10/25 07:17:38;;;;;;;9.40;5.60;;;7.80;99.90;;;;;;5111864;28;20044;-63
2023/10/25 07:20:13;;;;;;;7.38;5.10;;;7.90;99.90;;;;;;5113418;28;20057;-62
2023/10/25 07:22:40;;;;;;;7.38;4.85;;;7.90;99.90;;;;;;5111407;28;20043;-62
2023/10/25 07:25:06;;;;;;;9.85;5.00;;;7.90;99.90;;;;;;5111858;28;20112;-62
2023/10/25 07:27:32;;;;;;;6.78;4.90;;;7.90;99.90;;;;;;5111493;28;20071;-63
2023/10/25 07:29:58;;;;;;;9.40;4.95;;;8.00;99.90;;;;;;5111420;28;20036;-62
2023/10/25 07:32:24;;;;;;;8.55;4.88;;;8.00;99.90;;;;;;5110790;28;20101;-63
2023/10/25 07:34:49;;;;;;;10.30;4.72;;;8.00;99.90;;;;;;5112003;28;20043;-63
2023/10/25 07:37:15;;;;;;;11.13;4.82;;;8.10;99.90;;;;;;5131315;27;20062;-63
2023/10/25 07:39:41;;;;;;;7.40;4.80;;;8.20;99.90;;;;;;5114753;27;20039;-63
2023/10/25 07:42:07;;;;;;;7.30;4.70;;;8.20;99.90;;;;;;5130061;27;20047;-62
2023/10/25 07:44:34;;;;;;;10.02;5.07;;;8.20;99.90;;;;;;5114402;27;20039;-62
2023/10/25 07:47:00;;;;;;;8.98;4.57;;;8.30;99.90;;;;;;5114550;27;20073;-62
2023/10/25 07:49:26;;;;;;;8.80;4.95;;;8.20;99.90;;;;;;5128189;27;20039;-62
2023/10/25 07:51:54;;;;;;;7.15;4.50;;;8.30;99.90;;;;;;5113811;27;20031;-62
2023/10/25 07:54:20;;;;;;;11.00;5.00;;;8.30;99.90;;;;;;5132845;27;20494;-62
2023/10/25 07:56:46;;;;;;;7.82;4.65;;;8.40;99.90;;;;;;5132515;27;20039;-62
2023/10/25 07:59:11;;;;;;;7.30;4.85;;;8.40;99.90;;;;;;5133575;27;20425;-62
2023/10/25 08:01:38;;;;;;;6.22;4.57;;;8.50;99.90;;;;;;5114179;27;20058;-62
2023/10/25 08:04:07;;;;;;;8.13;5.13;;;8.50;99.90;;;;;;5114482;27;20430;-62
2023/10/25 08:06:34;;;;;;;7.88;4.28;;;8.50;99.90;;;;;;5113854;27;20051;-62
2023/10/25 08:08:59;;;;;;;9.20;4.50;;;8.60;99.90;;;;;;5131483;27;20035;-62
2023/10/25 08:11:25;;;;;;;7.95;5.20;;;8.70;99.90;;;;;;5113532;27;20039;-62
2023/10/25 08:13:51;;;;;;;7.80;4.75;;;8.70;99.90;;;;;;5113724;27;20498;-62
2023/10/25 08:16:16;;;;;;;8.55;4.72;;;8.70;99.90;;;;;;5113729;27;20062;-62
2023/10/25 08:18:42;;;;;;;8.18;5.15;;;8.70;99.90;;;;;;5113857;27;20043;-62
2023/10/25 08:21:14;;;;;;;7.00;5.07;;;8.80;99.90;;;;;;5113194;27;20047;-62
2023/10/25 08:23:40;;;;;;;7.20;5.15;;;8.80;99.90;;;;;;5112843;27;20477;-62
2023/10/25 08:26:06;;;;;;;8.70;4.43;;;8.80;99.90;;;;;;5132049;27;20031;-62
2023/10/25 08:28:31;;;;;;;9.93;4.75;;;8.90;99.90;;;;;;5113860;27;20031;-62
2023/10/25 08:30:57;;;;;;;9.38;5.15;;;8.90;99.90;;;;;;5113432;27;20039;-62
2023/10/25 08:33:23;;;;;;;7.22;4.70;;;8.90;99.90;;;;;;5113904;27;20118;-62
2023/10/25 08:35:48;;;;;;;9.18;6.00;;;9.00;99.90;;;;;;5113074;27;20509;-62
2023/10/25 08:38:14;;;;;;;8.23;5.40;;;9.00;99.90;;;;;;5131869;27;20096;-62
2023/10/25 08:40:41;;;;;;;10.65;5.57;;;9.00;99.90;;;;;;5114075;27;20035;-62
2023/10/25 08:43:10;;;;;;;9.07;5.07;;;9.10;99.90;;;;;;5095956;27;20043;-62
2023/10/25 08:45:36;;;;;;;10.90;6.07;;;9.20;99.90;;;;;;5131865;27;20031;-62
2023/10/25 08:48:03;;;;;;;12.70;5.28;;;9.20;99.90;;;;;;5131944;27;20091;-62
2023/10/25 08:50:30;;;;;;;8.35;4.65;;;9.30;99.90;;;;;;5131908;27;20043;-62
2023/10/25 08:52:57;;;;;;;9.18;5.55;;;9.30;99.90;;;;;;5113747;27;20046;-62
2023/10/25 08:55:23;;;;;;;10.95;5.18;;;9.30;99.90;;;;;;5113527;27;20040;-62
2023/10/25 08:57:55;;;;;;;10.07;5.28;;;9.40;99.90;;;;;;5112879;27;20035;-62
2023/10/25 09:00:23;;;;;;;9.20;5.18;;;9.50;99.90;;;;;;5113410;27;20096;-62
2023/10/25 09:02:49;;;;;;;12.25;5.10;;;9.50;99.90;;;;;;5113264;27;20125;-62
2023/10/25 09:05:14;;;;;;;9.32;5.18;;;9.60;99.90;;;;;;5113156;27;20058;-62
2023/10/25 09:07:40;;;;;;;8.52;4.95;;;9.70;99.90;;;;;;5112774;27;20405;-62
2023/10/25 09:10:12;;;;;;;8.55;6.03;;;9.80;99.90;;;;;;5112631;27;20464;-62
2023/10/25 09:12:38;;;;;;;7.75;5.47;;;9.90;99.90;;;;;;5128395;27;20043;-62
2023/10/25 09:15:04;;;;;;;11.38;5.75;;;10.00;99.90;;;;;;5131254;27;20626;-62
2023/10/25 09:17:36;;;;;;;9.82;5.22;;;10.20;99.90;;;;;;5131422;27;20259;-62
2023/10/25 09:20:06;;;;;;;11.13;5.50;;;10.30;99.90;;;;;;5114592;27;20035;-63
2023/10/25 09:22:32;;;;;;;11.20;5.25;;;10.40;99.90;;;;;;5113036;27;20498;-62
2023/10/25 09:25:00;;;;;;;9.35;5.32;;;10.50;99.90;;;;;;5131118;27;20084;-62
2023/10/25 09:27:26;;;;;;;11.07;5.40;;;10.60;99.90;;;;;;5112850;27;20047;-62
2023/10/25 09:29:52;;;;;;;9.60;5.43;;;10.70;99.90;;;;;;5134257;27;20059;-62
2023/10/25 09:32:20;;;;;;;9.15;5.10;;;10.80;99.90;;;;;;5115212;27;20398;-62
2023/10/25 09:34:48;;;;;;;11.60;5.60;;;10.90;99.90;;;;;;5112795;28;20173;-62
2023/10/25 09:37:14;;;;;;;9.18;5.00;;;11.10;99.90;;;;;;5112486;27;20549;-63
2023/10/25 09:39:40;;;;;;;9.52;4.97;;;11.20;99.90;;;;;;5112948;28;20423;-62
2023/10/25 09:42:09;;;;;;;8.80;4.40;;;11.30;99.90;;;;;;5131078;27;20508;-62
2023/10/25 09:44:45;;;;;;;9.75;4.45;;;11.40;99.90;;;;;;5131262;28;20049;-62
2023/10/25 09:47:11;;;;;;;5.75;4.00;;;11.50;99.90;;;;;;5112922;28;20040;-62
2023/10/25 09:49:42;;;;;;;9.48;3.90;;;11.60;99.90;;;;;;5131073;28;20031;-62
2023/10/25 09:52:18;;;;;;;11.13;4.88;;;11.50;99.90;;;;;;5113493;28;20039;-62
2023/10/25 09:54:49;;;;;;;9.57;4.13;;;11.60;99.90;;;;;;5112668;28;20039;-62
2023/10/25 09:57:17;;;;;;;7.43;4.45;;;11.60;99.90;;;;;;5112589;28;20493;-62
2023/10/25 09:59:43;;;;;;;8.18;4.47;;;11.60;99.90;;;;;;5131214;28;20038;-62
2023/10/25 10:02:10;;;;;;;9.90;4.47;;;11.60;99.90;;;;;;5112484;27;20058;-62
2023/10/25 10:04:42;;;;;;;10.65;4.60;;;11.60;99.90;;;;;;5129675;28;20039;-62
2023/10/25 10:07:54;;;;;;;10.07;4.80;;;11.50;99.90;;;;;;5112364;28;20443;-62
2023/10/25 10:10:34;;;;;;;9.63;4.72;;;11.40;99.90;;;;;;5047259;28;20049;-61
2023/10/25 10:13:12;;;;;;;10.45;4.78;;;11.30;99.90;;;;;;5030765;28;20578;-62
2023/10/25 10:16:09;;;;;;;10.07;4.47;;;11.30;99.90;;;;;;5013835;28;20053;-62
2023/10/25 10:18:42;;;;;;;9.25;4.57;;;11.20;99.90;;;;;;5047236;28;20037;-62
2023/10/25 10:21:10;;;;;;;7.82;4.55;;;11.20;99.90;;;;;;5030705;28;20053;-62
2023/10/25 10:23:40;;;;;;;9.75;4.45;;;11.20;99.90;;;;;;5030691;28;20124;-63
2023/10/25 10:26:08;;;;;;;7.93;4.43;;;11.20;99.90;;;;;;5047289;28;20459;-62
2023/10/25 10:28:43;;;;;;;6.95;4.30;;;11.20;99.90;;;;;;5030663;28;20037;-62
2023/10/25 10:31:11;;;;;;;10.18;4.50;;;11.20;99.90;;;;;;5031093;28;20040;-62
2023/10/25 10:33:49;;;;;;;7.18;4.30;;;11.20;99.90;;;;;;5033905;28;20492;-62
2023/10/25 10:36:30;;;;;;;5.85;4.18;;;11.30;99.90;;;;;;5048184;28;20119;-62
2023/10/25 10:39:17;;;;;;;8.00;4.68;;;11.30;99.90;;;;;;5034684;28;20100;-62
2023/10/25 10:41:44;;;;;;;10.20;4.68;;;11.30;99.90;;;;;;5034396;28;20120;-62
2023/10/25 10:44:13;;;;;;;7.65;4.05;;;11.30;99.90;;;;;;5050838;28;20043;-62
2023/10/25 10:46:51;;;;;;;6.28;3.72;;;11.30;99.90;;;;;;5116340;27;20061;-62
2023/10/25 10:49:20;;;;;;;8.93;4.22;;;11.30;99.90;;;;;;5113961;27;20085;-62
2023/10/25 10:51:45;;;;;;;6.03;4.43;;;11.30;99.90;;;;;;5115488;27;20091;-62
2023/10/25 10:54:11;;;;;;;6.63;4.15;;;11.30;99.90;;;;;;5115722;27;20443;-63
2023/10/25 10:56:36;;;;;;;6.47;3.60;;;11.30;99.90;;;;;;5116386;27;20486;-62
2023/10/25 10:59:03;;;;;;;7.45;3.80;;;11.30;99.90;;;;;;5115811;27;20031;-62
2023/10/25 11:01:29;;;;;;;7.80;4.18;;;11.30;99.90;;;;;;5133788;27;20080;-62
2023/10/25 11:03:58;;;;;;;7.82;3.88;;;11.30;99.90;;;;;;5115514;27;20043;-63
2023/10/25 11:06:27;;;;;;;8.32;4.00;;;11.20;99.90;;;;;;5130509;27;20042;-62
2023/10/25 11:08:53;;;;;;;6.90;3.63;;;11.30;99.90;;;;;;5115094;27;20031;-62
2023/10/25 11:11:20;;;;;;;8.30;4.18;;;11.30;99.90;;;;;;5117136;27;20079;-62
2023/10/25 11:13:48;;;;;;;6.80;3.92;;;11.30;99.90;;;;;;5115316;27;20035;-62
2023/10/25 11:16:13;;;;;;;6.45;4.35;;;11.30;99.90;;;;;;5133797;27;20095;-62
2023/10/25 11:18:39;;;;;;;8.05;4.38;;;11.20;99.90;;;;;;5115283;27;20076;-61
2023/10/25 11:21:05;;;;;;;6.30;3.85;;;11.20;99.90;;;;;;5115530;27;20043;-61
2023/10/25 11:23:30;;;;;;;5.03;3.88;;;11.20;99.90;;;;;;5098016;27;20055;-61
2023/10/25 11:25:56;;;;;;;6.13;4.38;;;11.20;99.90;;;;;;5115002;27;20043;-61
2023/10/25 11:28:23;;;;;;;8.38;3.60;;;11.20;99.90;;;;;;5133510;27;20064;-62
2023/10/25 11:30:50;;;;;;;8.20;4.20;;;11.20;99.90;;;;;;5115203;27;20039;-62
2023/10/25 11:33:16;;;;;;;7.82;4.05;;;11.20;99.90;;;;;;5115297;27;20042;-62
2023/10/25 11:35:42;;;;;;;5.28;3.90;;;11.20;99.90;;;;;;5114602;27;20050;-62
2023/10/25 11:38:11;;;;;;;7.78;4.20;;;11.10;99.90;;;;;;5133133;27;20405;-61
2023/10/25 11:40:43;;;;;;;9.40;4.72;;;11.10;99.90;;;;;;5133501;27;20031;-61
2023/10/25 11:43:09;;;;;;;11.07;4.05;;;11.10;99.90;;;;;;5131948;27;20375;-61
2023/10/25 11:45:38;;;;;;;7.32;4.38;;;11.10;99.90;;;;;;5133165;27;20119;-61
2023/10/25 11:48:06;;;;;;;8.50;4.93;;;11.10;99.90;;;;;;5109506;27;20051;-61
2023/10/25 11:50:32;;;;;;;8.52;4.60;;;11.10;99.90;;;;;;5131820;27;20110;-62
2023/10/25 11:53:00;;;;;;;8.05;4.20;;;11.00;99.90;;;;;;5114282;27;20118;-62
2023/10/25 11:55:27;;;;;;;8.68;4.63;;;11.00;99.90;;;;;;5114010;27;20047;-62
2023/10/25 11:57:53;;;;;;;7.00;4.32;;;11.00;99.90;;;;;;5132213;27;20046;-61
2023/10/25 12:00:20;;;;;;;6.78;5.05;;;11.00;99.90;;;;;;5115322;27;20111;-61
2023/10/25 12:02:45;;;;;;;7.68;4.47;;;11.00;99.90;;;;;;5111580;27;20046;-61
2023/10/25 12:05:12;;;;;;;10.18;5.22;;;11.00;99.90;;;;;;5113391;27;20059;-61
2023/10/25 12:07:38;;;;;;;7.47;4.72;;;10.90;99.90;;;;;;5132792;27;20039;-62
2023/10/25 12:10:04;;;;;;;7.20;4.97;;;10.90;99.90;;;;;;5113617;27;20078;-62
2023/10/25 12:12:30;;;;;;;8.10;5.10;;;10.90;99.90;;;;;;5113722;27;20039;-62
2023/10/25 12:14:56;;;;;;;6.32;4.43;;;10.90;99.90;;;;;;5114067;27;20374;-62
2023/10/25 12:17:22;;;;;;;8.02;5.03;;;10.90;99.90;;;;;;5114352;27;20039;-62
2023/10/25 12:19:50;;;;;;;6.20;4.85;;;11.00;99.90;;;;;;5113778;27;20039;-61
2023/10/25 12:22:16;;;;;;;7.93;5.43;;;10.90;99.90;;;;;;5113852;27;20233;-61
2023/10/25 12:24:43;;;;;;;9.45;5.43;;;10.90;99.90;;;;;;5114173;27;20493;-61
2023/10/25 12:27:09;;;;;;;9.88;5.28;;;10.90;99.90;;;;;;5132239;27;20114;-62
2023/10/25 12:29:35;;;;;;;9.20;5.70;;;10.90;99.90;;;;;;5132327;27;20027;-61
2023/10/25 12:32:05;;;;;;;7.90;5.43;;;10.90;99.90;;;;;;5113309;27;20039;-61
2023/10/25 12:34:32;;;;;;;8.88;5.43;;;10.90;99.90;;;;;;5096527;27;20117;-61
2023/10/25 12:36:58;;;;;;;7.18;5.07;;;10.90;99.90;;;;;;5132039;27;20054;-62
2023/10/25 12:39:24;;;;;;;10.18;5.63;;;10.80;99.90;;;;;;5131893;27;20043;-61
2023/10/25 12:41:50;;;;;;;9.43;5.10;;;10.90;99.90;;;;;;5113026;27;20050;-61
2023/10/25 12:44:15;;;;;;;8.30;4.88;;;10.80;99.90;;;;;;5131610;27;20031;-62
2023/10/25 12:46:43;;;;;;;6.32;4.95;;;10.80;99.90;;;;;;5113373;27;20050;-61
2023/10/25 12:49:10;;;;;;;7.07;5.07;;;10.80;99.90;;;;;;5096063;27;20038;-62
2023/10/25 12:51:36;;;;;;;10.30;5.35;;;10.80;99.90;;;;;;5111202;27;20043;-61